sensor_id;sensor_type;location;lat;lon;timestamp;P1;durP1;ratioP1;P2;durP2;ratioP2
21128;SDS011;10722;51.910;8.352;2023-08-20T00:01:47;59.38;;;39.22;;
21128;SDS011;10722;51.910;8.352;2023-08-20T00:04:39;61.42;;;40.45;;
21128;SDS011;10722;51.910;8.352;2023-08-20T00:07:25;55.95;;;37.42;;
21128;SDS011;10722;51.910;8.352;2023-08-20T00:10:11;57.45;;;38.60;;
21128;SDS011;10722;51.910;8.352;2023-08-20T00:12:55;61.80;;;39.25;;
21128;SDS011;10722;51.910;8.352;2023-08-20T00:15:41;58.35;;;39.00;;
21128;SDS011;10722;51.910;8.352;2023-08-20T00:18:26;61.20;;;39.83;;
21128;SDS011;10722;51.910;8.352;2023-08-20T00:21:13;58.72;;;39.35;;
21128;SDS011;10722;51.910;8.352;2023-08-20T00:23:58;57.42;;;37.63;;
21128;SDS011;10722;51.910;8.352;2023-08-20T00:26:44;55.97;;;36.63;;
21128;SDS011;10722;51.910;8.352;2023-08-20T00:29:29;48.65;;;30.60;;
21128;SDS011;10722;51.910;8.352;2023-08-20T00:32:14;39.13;;;26.30;;
21128;SDS011;10722;51.910;8.352;2023-08-20T00:34:59;38.20;;;23.30;;
21128;SDS011;10722;51.910;8.352;2023-08-20T00:37:45;34.38;;;22.77;;
21128;SDS011;10722;51.910;8.352;2023-08-20T00:40:30;32.92;;;20.98;;
21128;SDS011;10722;51.910;8.352;2023-08-20T00:43:15;34.22;;;21.23;;
21128;SDS011;10722;51.910;8.352;2023-08-20T00:46:00;36.45;;;22.30;;
21128;SDS011;10722;51.910;8.352;2023-08-20T00:48:46;44.03;;;24.70;;
21128;SDS011;10722;51.910;8.352;2023-08-20T00:51:32;35.38;;;22.88;;
21128;SDS011;10722;51.910;8.352;2023-08-20T00:54:18;36.47;;;22.50;;
21128;SDS011;10722;51.910;8.352;2023-08-20T00:57:04;37.83;;;23.40;;
21128;SDS011;10722;51.910;8.352;2023-08-20T00:59:51;39.20;;;24.70;;
21128;SDS011;10722;51.910;8.352;2023-08-20T01:02:36;35.58;;;23.02;;
21128;SDS011;10722;51.910;8.352;2023-08-20T01:05:23;36.08;;;22.70;;
21128;SDS011;10722;51.910;8.352;2023-08-20T01:08:34;39.22;;;23.25;;
21128;SDS011;10722;51.910;8.352;2023-08-20T01:11:29;38.17;;;23.20;;
21128;SDS011;10722;51.910;8.352;2023-08-20T01:14:20;36.33;;;21.40;;
21128;SDS011;10722;51.910;8.352;2023-08-20T01:17:05;39.05;;;23.92;;
21128;SDS011;10722;51.910;8.352;2023-08-20T01:19:51;37.08;;;21.88;;
21128;SDS011;10722;51.910;8.352;2023-08-20T01:22:45;33.42;;;20.38;;
21128;SDS011;10722;51.910;8.352;2023-08-20T01:28:47;39.97;;;21.35;;
21128;SDS011;10722;51.910;8.352;2023-08-20T01:31:33;28.88;;;19.00;;
21128;SDS011;10722;51.910;8.352;2023-08-20T01:34:18;29.08;;;18.23;;
21128;SDS011;10722;51.910;8.352;2023-08-20T01:37:03;31.63;;;18.50;;
21128;SDS011;10722;51.910;8.352;2023-08-20T01:39:48;38.97;;;22.70;;
21128;SDS011;10722;51.910;8.352;2023-08-20T01:42:33;32.20;;;18.50;;
21128;SDS011;10722;51.910;8.352;2023-08-20T01:45:18;30.50;;;18.88;;
21128;SDS011;10722;51.910;8.352;2023-08-20T01:48:03;30.30;;;18.05;;
21128;SDS011;10722;51.910;8.352;2023-08-20T01:50:49;32.67;;;18.02;;
21128;SDS011;10722;51.910;8.352;2023-08-20T01:53:34;31.13;;;19.05;;
21128;SDS011;10722;51.910;8.352;2023-08-20T01:56:19;29.75;;;16.50;;
21128;SDS011;10722;51.910;8.352;2023-08-20T01:59:04;26.42;;;16.42;;
21128;SDS011;10722;51.910;8.352;2023-08-20T02:01:49;29.58;;;16.77;;
21128;SDS011;10722;51.910;8.352;2023-08-20T02:04:34;28.25;;;17.30;;
21128;SDS011;10722;51.910;8.352;2023-08-20T02:07:19;32.20;;;17.95;;
21128;SDS011;10722;51.910;8.352;2023-08-20T02:10:04;29.77;;;17.73;;
21128;SDS011;10722;51.910;8.352;2023-08-20T02:12:50;30.85;;;17.02;;
21128;SDS011;10722;51.910;8.352;2023-08-20T02:15:35;29.17;;;16.50;;
21128;SDS011;10722;51.910;8.352;2023-08-20T02:18:20;31.20;;;17.02;;
21128;SDS011;10722;51.910;8.352;2023-08-20T02:21:05;24.15;;;14.07;;
21128;SDS011;10722;51.910;8.352;2023-08-20T02:23:49;28.63;;;15.93;;
21128;SDS011;10722;51.910;8.352;2023-08-20T02:26:35;23.77;;;14.50;;
21128;SDS011;10722;51.910;8.352;2023-08-20T02:29:20;25.48;;;15.05;;
21128;SDS011;10722;51.910;8.352;2023-08-20T02:32:04;29.13;;;16.23;;
21128;SDS011;10722;51.910;8.352;2023-08-20T02:34:50;26.80;;;15.25;;
21128;SDS011;10722;51.910;8.352;2023-08-20T02:37:35;29.35;;;16.20;;
21128;SDS011;10722;51.910;8.352;2023-08-20T02:40:21;28.70;;;16.70;;
21128;SDS011;10722;51.910;8.352;2023-08-20T02:43:06;27.08;;;14.25;;
21128;SDS011;10722;51.910;8.352;2023-08-20T02:45:51;24.20;;;13.80;;
21128;SDS011;10722;51.910;8.352;2023-08-20T02:48:36;27.95;;;14.90;;
21128;SDS011;10722;51.910;8.352;2023-08-20T02:51:21;32.47;;;17.10;;
21128;SDS011;10722;51.910;8.352;2023-08-20T02:54:06;26.05;;;14.63;;
21128;SDS011;10722;51.910;8.352;2023-08-20T02:56:51;32.08;;;16.63;;
21128;SDS011;10722;51.910;8.352;2023-08-20T02:59:36;32.33;;;16.10;;
21128;SDS011;10722;51.910;8.352;2023-08-20T03:02:21;27.45;;;15.18;;
21128;SDS011;10722;51.910;8.352;2023-08-20T03:05:06;27.23;;;14.73;;
21128;SDS011;10722;51.910;8.352;2023-08-20T03:07:51;26.27;;;14.40;;
21128;SDS011;10722;51.910;8.352;2023-08-20T03:10:36;31.80;;;16.10;;
21128;SDS011;10722;51.910;8.352;2023-08-20T03:13:21;31.23;;;16.98;;
21128;SDS011;10722;51.910;8.352;2023-08-20T03:16:06;31.38;;;16.38;;
21128;SDS011;10722;51.910;8.352;2023-08-20T03:18:51;27.77;;;15.93;;
21128;SDS011;10722;51.910;8.352;2023-08-20T03:21:37;34.00;;;17.88;;
21128;SDS011;10722;51.910;8.352;2023-08-20T03:24:22;28.08;;;16.50;;
21128;SDS011;10722;51.910;8.352;2023-08-20T03:27:07;28.15;;;15.82;;
21128;SDS011;10722;51.910;8.352;2023-08-20T03:29:52;30.25;;;16.95;;
21128;SDS011;10722;51.910;8.352;2023-08-20T03:32:36;26.95;;;16.38;;
21128;SDS011;10722;51.910;8.352;2023-08-20T03:35:21;29.92;;;15.38;;
21128;SDS011;10722;51.910;8.352;2023-08-20T03:38:06;29.27;;;16.13;;
21128;SDS011;10722;51.910;8.352;2023-08-20T03:40:51;25.48;;;14.80;;
21128;SDS011;10722;51.910;8.352;2023-08-20T03:43:36;26.88;;;16.17;;
21128;SDS011;10722;51.910;8.352;2023-08-20T03:46:21;26.88;;;15.48;;
21128;SDS011;10722;51.910;8.352;2023-08-20T03:49:06;29.20;;;15.18;;
21128;SDS011;10722;51.910;8.352;2023-08-20T03:51:52;29.10;;;15.23;;
21128;SDS011;10722;51.910;8.352;2023-08-20T03:54:37;29.60;;;15.90;;
21128;SDS011;10722;51.910;8.352;2023-08-20T03:57:21;26.85;;;15.93;;
21128;SDS011;10722;51.910;8.352;2023-08-20T04:00:06;25.83;;;14.32;;
21128;SDS011;10722;51.910;8.352;2023-08-20T04:02:52;27.90;;;16.13;;
21128;SDS011;10722;51.910;8.352;2023-08-20T04:05:38;27.67;;;16.80;;
21128;SDS011;10722;51.910;8.352;2023-08-20T04:08:23;27.20;;;16.95;;
21128;SDS011;10722;51.910;8.352;2023-08-20T04:11:08;29.65;;;16.38;;
21128;SDS011;10722;51.910;8.352;2023-08-20T04:13:53;34.92;;;18.30;;
21128;SDS011;10722;51.910;8.352;2023-08-20T04:16:38;29.15;;;17.75;;
21128;SDS011;10722;51.910;8.352;2023-08-20T04:19:23;30.83;;;17.60;;
21128;SDS011;10722;51.910;8.352;2023-08-20T04:22:08;31.40;;;16.88;;
21128;SDS011;10722;51.910;8.352;2023-08-20T04:24:53;29.33;;;16.35;;
21128;SDS011;10722;51.910;8.352;2023-08-20T04:27:38;29.55;;;15.73;;
21128;SDS011;10722;51.910;8.352;2023-08-20T04:30:23;28.90;;;15.77;;
21128;SDS011;10722;51.910;8.352;2023-08-20T04:33:08;27.40;;;14.93;;
21128;SDS011;10722;51.910;8.352;2023-08-20T04:35:53;26.50;;;15.13;;
21128;SDS011;10722;51.910;8.352;2023-08-20T04:38:38;26.13;;;14.43;;
21128;SDS011;10722;51.910;8.352;2023-08-20T04:41:23;24.05;;;13.93;;
21128;SDS011;10722;51.910;8.352;2023-08-20T04:44:08;25.83;;;14.93;;
21128;SDS011;10722;51.910;8.352;2023-08-20T04:46:53;28.75;;;15.65;;
21128;SDS011;10722;51.910;8.352;2023-08-20T04:49:39;28.15;;;16.10;;
21128;SDS011;10722;51.910;8.352;2023-08-20T04:52:24;29.92;;;16.30;;
21128;SDS011;10722;51.910;8.352;2023-08-20T04:55:09;32.97;;;17.02;;
21128;SDS011;10722;51.910;8.352;2023-08-20T04:57:54;35.00;;;18.45;;
21128;SDS011;10722;51.910;8.352;2023-08-20T05:00:39;30.88;;;17.48;;
21128;SDS011;10722;51.910;8.352;2023-08-20T05:03:25;28.63;;;16.27;;
21128;SDS011;10722;51.910;8.352;2023-08-20T05:06:10;28.23;;;16.75;;
21128;SDS011;10722;51.910;8.352;2023-08-20T05:08:55;27.33;;;15.80;;
21128;SDS011;10722;51.910;8.352;2023-08-20T05:11:40;28.77;;;15.52;;
21128;SDS011;10722;51.910;8.352;2023-08-20T05:14:25;24.75;;;14.40;;
21128;SDS011;10722;51.910;8.352;2023-08-20T05:17:10;29.27;;;14.88;;
21128;SDS011;10722;51.910;8.352;2023-08-20T05:19:56;28.98;;;16.30;;
21128;SDS011;10722;51.910;8.352;2023-08-20T05:22:41;28.33;;;16.50;;
21128;SDS011;10722;51.910;8.352;2023-08-20T05:25:26;30.60;;;15.27;;
21128;SDS011;10722;51.910;8.352;2023-08-20T05:28:11;27.38;;;15.88;;
21128;SDS011;10722;51.910;8.352;2023-08-20T05:30:56;26.10;;;15.10;;
21128;SDS011;10722;51.910;8.352;2023-08-20T05:33:41;24.73;;;13.80;;
21128;SDS011;10722;51.910;8.352;2023-08-20T05:36:26;25.95;;;14.40;;
21128;SDS011;10722;51.910;8.352;2023-08-20T05:39:11;25.27;;;14.32;;
21128;SDS011;10722;51.910;8.352;2023-08-20T05:41:56;27.42;;;14.95;;
21128;SDS011;10722;51.910;8.352;2023-08-20T05:44:41;23.40;;;12.55;;
21128;SDS011;10722;51.910;8.352;2023-08-20T05:47:26;24.35;;;13.13;;
21128;SDS011;10722;51.910;8.352;2023-08-20T05:50:11;21.60;;;11.45;;
21128;SDS011;10722;51.910;8.352;2023-08-20T05:52:56;22.60;;;10.57;;
21128;SDS011;10722;51.910;8.352;2023-08-20T05:55:41;22.70;;;10.52;;
21128;SDS011;10722;51.910;8.352;2023-08-20T05:58:26;18.45;;;8.70;;
21128;SDS011;10722;51.910;8.352;2023-08-20T06:01:11;20.23;;;8.65;;
21128;SDS011;10722;51.910;8.352;2023-08-20T06:03:56;19.52;;;7.60;;
21128;SDS011;10722;51.910;8.352;2023-08-20T06:06:41;15.23;;;6.72;;
21128;SDS011;10722;51.910;8.352;2023-08-20T06:09:26;18.05;;;6.53;;
21128;SDS011;10722;51.910;8.352;2023-08-20T06:12:11;17.13;;;5.97;;
21128;SDS011;10722;51.910;8.352;2023-08-20T06:14:57;17.33;;;5.80;;
21128;SDS011;10722;51.910;8.352;2023-08-20T06:17:42;14.02;;;5.18;;
21128;SDS011;10722;51.910;8.352;2023-08-20T06:20:27;18.08;;;5.80;;
21128;SDS011;10722;51.910;8.352;2023-08-20T06:23:12;15.88;;;6.15;;
21128;SDS011;10722;51.910;8.352;2023-08-20T06:26:11;16.63;;;6.13;;
21128;SDS011;10722;51.910;8.352;2023-08-20T06:28:56;18.20;;;6.70;;
21128;SDS011;10722;51.910;8.352;2023-08-20T06:31:41;19.80;;;7.07;;
21128;SDS011;10722;51.910;8.352;2023-08-20T06:34:27;18.25;;;7.03;;
21128;SDS011;10722;51.910;8.352;2023-08-20T06:37:11;18.98;;;8.07;;
21128;SDS011;10722;51.910;8.352;2023-08-20T06:39:56;17.70;;;7.45;;
21128;SDS011;10722;51.910;8.352;2023-08-20T06:42:41;19.40;;;7.80;;
21128;SDS011;10722;51.910;8.352;2023-08-20T06:45:26;20.40;;;8.30;;
21128;SDS011;10722;51.910;8.352;2023-08-20T06:48:11;19.85;;;9.55;;
21128;SDS011;10722;51.910;8.352;2023-08-20T06:50:57;16.50;;;8.07;;
21128;SDS011;10722;51.910;8.352;2023-08-20T06:53:41;17.10;;;7.68;;
21128;SDS011;10722;51.910;8.352;2023-08-20T06:56:26;18.73;;;8.43;;
21128;SDS011;10722;51.910;8.352;2023-08-20T06:59:11;20.65;;;8.07;;
21128;SDS011;10722;51.910;8.352;2023-08-20T07:01:57;16.88;;;7.70;;
21128;SDS011;10722;51.910;8.352;2023-08-20T07:04:41;18.92;;;9.00;;
21128;SDS011;10722;51.910;8.352;2023-08-20T07:07:27;19.02;;;8.77;;
21128;SDS011;10722;51.910;8.352;2023-08-20T07:10:12;18.75;;;10.00;;
21128;SDS011;10722;51.910;8.352;2023-08-20T07:12:57;20.17;;;10.57;;
21128;SDS011;10722;51.910;8.352;2023-08-20T07:15:42;22.85;;;11.63;;
21128;SDS011;10722;51.910;8.352;2023-08-20T07:18:27;22.02;;;11.40;;
21128;SDS011;10722;51.910;8.352;2023-08-20T07:21:13;20.10;;;10.13;;
21128;SDS011;10722;51.910;8.352;2023-08-20T07:23:58;19.40;;;10.10;;
21128;SDS011;10722;51.910;8.352;2023-08-20T07:26:43;20.13;;;10.82;;
21128;SDS011;10722;51.910;8.352;2023-08-20T07:29:28;22.52;;;12.27;;
21128;SDS011;10722;51.910;8.352;2023-08-20T07:32:14;23.63;;;14.77;;
21128;SDS011;10722;51.910;8.352;2023-08-20T07:34:59;25.13;;;15.43;;
21128;SDS011;10722;51.910;8.352;2023-08-20T07:37:43;24.33;;;16.48;;
21128;SDS011;10722;51.910;8.352;2023-08-20T07:40:28;27.23;;;17.45;;
21128;SDS011;10722;51.910;8.352;2023-08-20T07:43:15;26.00;;;16.10;;
21128;SDS011;10722;51.910;8.352;2023-08-20T07:46:00;25.85;;;16.75;;
21128;SDS011;10722;51.910;8.352;2023-08-20T07:48:45;26.60;;;16.50;;
21128;SDS011;10722;51.910;8.352;2023-08-20T07:51:30;27.45;;;15.65;;
21128;SDS011;10722;51.910;8.352;2023-08-20T07:54:15;26.80;;;17.10;;
21128;SDS011;10722;51.910;8.352;2023-08-20T07:57:00;26.83;;;16.33;;
21128;SDS011;10722;51.910;8.352;2023-08-20T07:59:45;24.02;;;15.93;;
21128;SDS011;10722;51.910;8.352;2023-08-20T08:02:31;28.05;;;17.17;;
21128;SDS011;10722;51.910;8.352;2023-08-20T08:05:16;25.42;;;16.75;;
21128;SDS011;10722;51.910;8.352;2023-08-20T08:08:01;25.98;;;16.77;;
21128;SDS011;10722;51.910;8.352;2023-08-20T08:10:46;29.55;;;17.38;;
21128;SDS011;10722;51.910;8.352;2023-08-20T08:13:31;28.10;;;18.77;;
21128;SDS011;10722;51.910;8.352;2023-08-20T08:16:16;27.73;;;17.85;;
21128;SDS011;10722;51.910;8.352;2023-08-20T08:19:02;28.70;;;18.88;;
21128;SDS011;10722;51.910;8.352;2023-08-20T08:21:47;32.38;;;21.90;;
21128;SDS011;10722;51.910;8.352;2023-08-20T08:24:32;29.85;;;20.55;;
21128;SDS011;10722;51.910;8.352;2023-08-20T08:27:17;30.83;;;21.27;;
21128;SDS011;10722;51.910;8.352;2023-08-20T08:30:02;29.25;;;21.20;;
21128;SDS011;10722;51.910;8.352;2023-08-20T08:32:48;33.03;;;21.88;;
21128;SDS011;10722;51.910;8.352;2023-08-20T08:35:33;28.13;;;20.48;;
21128;SDS011;10722;51.910;8.352;2023-08-20T08:38:18;32.60;;;23.13;;
21128;SDS011;10722;51.910;8.352;2023-08-20T08:41:03;33.60;;;22.15;;
21128;SDS011;10722;51.910;8.352;2023-08-20T08:43:53;30.65;;;21.50;;
21128;SDS011;10722;51.910;8.352;2023-08-20T08:46:40;32.83;;;24.08;;
21128;SDS011;10722;51.910;8.352;2023-08-20T08:49:26;31.35;;;21.77;;
21128;SDS011;10722;51.910;8.352;2023-08-20T08:52:11;33.30;;;23.38;;
21128;SDS011;10722;51.910;8.352;2023-08-20T08:54:56;32.47;;;24.60;;
21128;SDS011;10722;51.910;8.352;2023-08-20T08:57:41;30.70;;;23.23;;
21128;SDS011;10722;51.910;8.352;2023-08-20T09:00:26;32.17;;;20.00;;
21128;SDS011;10722;51.910;8.352;2023-08-20T09:03:11;28.00;;;19.95;;
21128;SDS011;10722;51.910;8.352;2023-08-20T09:06:00;28.65;;;20.40;;
21128;SDS011;10722;51.910;8.352;2023-08-20T09:08:47;30.15;;;23.13;;
21128;SDS011;10722;51.910;8.352;2023-08-20T09:11:35;28.73;;;19.35;;
21128;SDS011;10722;51.910;8.352;2023-08-20T09:14:29;27.38;;;17.88;;
21128;SDS011;10722;51.910;8.352;2023-08-20T09:17:14;24.63;;;16.35;;
21128;SDS011;10722;51.910;8.352;2023-08-20T09:20:00;25.90;;;18.63;;
21128;SDS011;10722;51.910;8.352;2023-08-20T09:22:48;26.98;;;18.20;;
21128;SDS011;10722;51.910;8.352;2023-08-20T09:25:33;22.73;;;15.35;;
21128;SDS011;10722;51.910;8.352;2023-08-20T09:28:18;24.85;;;16.80;;
21128;SDS011;10722;51.910;8.352;2023-08-20T09:31:03;25.40;;;18.23;;
21128;SDS011;10722;51.910;8.352;2023-08-20T09:33:52;24.30;;;16.50;;
21128;SDS011;10722;51.910;8.352;2023-08-20T09:36:37;22.67;;;15.13;;
21128;SDS011;10722;51.910;8.352;2023-08-20T09:39:22;21.90;;;15.70;;
21128;SDS011;10722;51.910;8.352;2023-08-20T09:42:08;21.95;;;14.23;;
21128;SDS011;10722;51.910;8.352;2023-08-20T09:44:55;26.60;;;17.27;;
21128;SDS011;10722;51.910;8.352;2023-08-20T09:47:41;21.40;;;13.18;;
21128;SDS011;10722;51.910;8.352;2023-08-20T09:50:30;21.60;;;13.20;;
21128;SDS011;10722;51.910;8.352;2023-08-20T09:53:26;21.15;;;13.35;;
21128;SDS011;10722;51.910;8.352;2023-08-20T09:59:15;20.42;;;11.95;;
21128;SDS011;10722;51.910;8.352;2023-08-20T10:02:02;18.33;;;11.48;;
21128;SDS011;10722;51.910;8.352;2023-08-20T10:04:46;17.20;;;10.80;;
21128;SDS011;10722;51.910;8.352;2023-08-20T10:07:34;19.63;;;9.55;;
21128;SDS011;10722;51.910;8.352;2023-08-20T10:10:21;19.25;;;11.07;;
21128;SDS011;10722;51.910;8.352;2023-08-20T10:13:06;18.40;;;10.43;;
21128;SDS011;10722;51.910;8.352;2023-08-20T10:15:52;17.35;;;9.18;;
21128;SDS011;10722;51.910;8.352;2023-08-20T10:18:38;14.20;;;8.07;;
21128;SDS011;10722;51.910;8.352;2023-08-20T10:21:23;15.73;;;8.35;;
21128;SDS011;10722;51.910;8.352;2023-08-20T10:24:09;15.40;;;7.72;;
21128;SDS011;10722;51.910;8.352;2023-08-20T10:27:07;14.25;;;6.95;;
21128;SDS011;10722;51.910;8.352;2023-08-20T10:29:55;15.13;;;6.97;;
21128;SDS011;10722;51.910;8.352;2023-08-20T10:32:45;12.48;;;6.78;;
21128;SDS011;10722;51.910;8.352;2023-08-20T10:38:24;12.20;;;6.05;;
21128;SDS011;10722;51.910;8.352;2023-08-20T10:41:09;11.93;;;5.50;;
21128;SDS011;10722;51.910;8.352;2023-08-20T10:43:58;11.60;;;5.40;;
21128;SDS011;10722;51.910;8.352;2023-08-20T10:46:53;13.57;;;6.15;;
21128;SDS011;10722;51.910;8.352;2023-08-20T10:49:38;16.25;;;6.80;;
21128;SDS011;10722;51.910;8.352;2023-08-20T10:52:23;14.07;;;7.25;;
21128;SDS011;10722;51.910;8.352;2023-08-20T10:55:08;13.68;;;6.75;;
21128;SDS011;10722;51.910;8.352;2023-08-20T10:57:56;13.75;;;7.00;;
21128;SDS011;10722;51.910;8.352;2023-08-20T11:00:42;13.40;;;6.85;;
21128;SDS011;10722;51.910;8.352;2023-08-20T11:03:27;14.32;;;7.05;;
21128;SDS011;10722;51.910;8.352;2023-08-20T11:06:13;13.07;;;6.70;;
21128;SDS011;10722;51.910;8.352;2023-08-20T11:08:58;13.60;;;7.10;;
21128;SDS011;10722;51.910;8.352;2023-08-20T11:11:44;14.52;;;7.40;;
21128;SDS011;10722;51.910;8.352;2023-08-20T11:14:29;15.48;;;8.07;;
21128;SDS011;10722;51.910;8.352;2023-08-20T11:17:14;15.73;;;8.30;;
21128;SDS011;10722;51.910;8.352;2023-08-20T11:20:00;15.50;;;7.82;;
21128;SDS011;10722;51.910;8.352;2023-08-20T11:22:53;16.73;;;7.68;;
21128;SDS011;10722;51.910;8.352;2023-08-20T11:25:41;14.18;;;7.57;;
21128;SDS011;10722;51.910;8.352;2023-08-20T11:28:27;14.75;;;7.40;;
21128;SDS011;10722;51.910;8.352;2023-08-20T11:31:12;14.73;;;7.72;;
21128;SDS011;10722;51.910;8.352;2023-08-20T11:33:58;14.27;;;7.20;;
21128;SDS011;10722;51.910;8.352;2023-08-20T11:36:43;14.30;;;7.40;;
21128;SDS011;10722;51.910;8.352;2023-08-20T11:39:28;15.38;;;7.78;;
21128;SDS011;10722;51.910;8.352;2023-08-20T11:42:13;14.95;;;7.35;;
21128;SDS011;10722;51.910;8.352;2023-08-20T11:44:59;14.82;;;8.07;;
21128;SDS011;10722;51.910;8.352;2023-08-20T11:47:44;12.70;;;6.93;;
21128;SDS011;10722;51.910;8.352;2023-08-20T11:50:29;15.60;;;7.32;;
21128;SDS011;10722;51.910;8.352;2023-08-20T11:53:14;13.77;;;6.75;;
21128;SDS011;10722;51.910;8.352;2023-08-20T11:55:59;15.70;;;7.10;;
21128;SDS011;10722;51.910;8.352;2023-08-20T11:58:51;14.75;;;7.63;;
21128;SDS011;10722;51.910;8.352;2023-08-20T12:01:37;13.77;;;7.20;;
21128;SDS011;10722;51.910;8.352;2023-08-20T12:04:25;12.55;;;6.07;;
21128;SDS011;10722;51.910;8.352;2023-08-20T12:07:15;12.98;;;6.10;;
21128;SDS011;10722;51.910;8.352;2023-08-20T12:10:04;13.55;;;6.40;;
21128;SDS011;10722;51.910;8.352;2023-08-20T12:13:03;12.77;;;6.07;;
21128;SDS011;10722;51.910;8.352;2023-08-20T12:15:48;12.95;;;6.20;;
21128;SDS011;10722;51.910;8.352;2023-08-20T12:18:33;15.55;;;6.38;;
21128;SDS011;10722;51.910;8.352;2023-08-20T12:21:18;12.18;;;5.95;;
21128;SDS011;10722;51.910;8.352;2023-08-20T12:24:04;15.77;;;7.18;;
21128;SDS011;10722;51.910;8.352;2023-08-20T12:26:49;14.98;;;6.55;;
21128;SDS011;10722;51.910;8.352;2023-08-20T12:29:35;13.48;;;6.25;;
21128;SDS011;10722;51.910;8.352;2023-08-20T12:32:21;14.05;;;6.30;;
21128;SDS011;10722;51.910;8.352;2023-08-20T12:35:06;13.48;;;6.32;;
21128;SDS011;10722;51.910;8.352;2023-08-20T12:37:51;13.48;;;6.45;;
21128;SDS011;10722;51.910;8.352;2023-08-20T12:40:36;13.35;;;6.00;;
21128;SDS011;10722;51.910;8.352;2023-08-20T12:43:21;14.32;;;6.40;;
21128;SDS011;10722;51.910;8.352;2023-08-20T12:46:06;11.90;;;5.65;;
21128;SDS011;10722;51.910;8.352;2023-08-20T12:48:52;11.55;;;5.13;;
21128;SDS011;10722;51.910;8.352;2023-08-20T12:51:37;12.30;;;5.70;;
21128;SDS011;10722;51.910;8.352;2023-08-20T12:54:21;13.27;;;6.80;;
21128;SDS011;10722;51.910;8.352;2023-08-20T12:57:07;11.95;;;6.03;;
21128;SDS011;10722;51.910;8.352;2023-08-20T12:59:51;11.88;;;5.75;;
21128;SDS011;10722;51.910;8.352;2023-08-20T13:02:36;12.57;;;5.70;;
21128;SDS011;10722;51.910;8.352;2023-08-20T13:05:23;12.57;;;5.95;;
21128;SDS011;10722;51.910;8.352;2023-08-20T13:08:09;12.55;;;5.90;;
21128;SDS011;10722;51.910;8.352;2023-08-20T13:10:55;12.23;;;5.75;;
21128;SDS011;10722;51.910;8.352;2023-08-20T13:13:41;13.05;;;5.85;;
21128;SDS011;10722;51.910;8.352;2023-08-20T13:16:27;11.93;;;5.75;;
21128;SDS011;10722;51.910;8.352;2023-08-20T13:19:13;11.85;;;5.72;;
21128;SDS011;10722;51.910;8.352;2023-08-20T13:21:58;14.70;;;5.75;;
21128;SDS011;10722;51.910;8.352;2023-08-20T13:24:43;12.88;;;5.63;;
21128;SDS011;10722;51.910;8.352;2023-08-20T13:27:28;15.05;;;6.28;;
21128;SDS011;10722;51.910;8.352;2023-08-20T13:30:15;13.15;;;5.82;;
21128;SDS011;10722;51.910;8.352;2023-08-20T13:33:00;14.25;;;5.75;;
21128;SDS011;10722;51.910;8.352;2023-08-20T13:35:45;11.35;;;5.43;;
21128;SDS011;10722;51.910;8.352;2023-08-20T13:38:30;13.38;;;6.10;;
21128;SDS011;10722;51.910;8.352;2023-08-20T13:41:15;13.20;;;6.10;;
21128;SDS011;10722;51.910;8.352;2023-08-20T13:44:01;12.88;;;5.95;;
21128;SDS011;10722;51.910;8.352;2023-08-20T13:46:46;11.75;;;5.65;;
21128;SDS011;10722;51.910;8.352;2023-08-20T13:49:31;12.43;;;5.60;;
21128;SDS011;10722;51.910;8.352;2023-08-20T13:52:16;13.25;;;6.38;;
21128;SDS011;10722;51.910;8.352;2023-08-20T13:55:01;14.38;;;5.78;;
21128;SDS011;10722;51.910;8.352;2023-08-20T13:57:46;12.68;;;5.72;;
21128;SDS011;10722;51.910;8.352;2023-08-20T14:00:32;14.45;;;5.68;;
21128;SDS011;10722;51.910;8.352;2023-08-20T14:03:17;15.38;;;6.35;;
21128;SDS011;10722;51.910;8.352;2023-08-20T14:06:02;14.35;;;5.85;;
21128;SDS011;10722;51.910;8.352;2023-08-20T14:08:48;12.18;;;6.03;;
21128;SDS011;10722;51.910;8.352;2023-08-20T14:11:33;13.90;;;6.20;;
21128;SDS011;10722;51.910;8.352;2023-08-20T14:14:18;12.68;;;6.03;;
21128;SDS011;10722;51.910;8.352;2023-08-20T14:17:03;14.55;;;6.35;;
21128;SDS011;10722;51.910;8.352;2023-08-20T14:19:48;12.95;;;6.45;;
21128;SDS011;10722;51.910;8.352;2023-08-20T14:22:33;13.38;;;6.10;;
21128;SDS011;10722;51.910;8.352;2023-08-20T14:25:19;14.77;;;6.90;;
21128;SDS011;10722;51.910;8.352;2023-08-20T14:28:04;13.15;;;6.80;;
21128;SDS011;10722;51.910;8.352;2023-08-20T14:30:49;15.88;;;6.90;;
21128;SDS011;10722;51.910;8.352;2023-08-20T14:33:35;13.68;;;7.35;;
21128;SDS011;10722;51.910;8.352;2023-08-20T14:36:19;13.93;;;7.22;;
21128;SDS011;10722;51.910;8.352;2023-08-20T14:39:05;15.52;;;7.30;;
21128;SDS011;10722;51.910;8.352;2023-08-20T14:41:50;15.02;;;7.72;;
21128;SDS011;10722;51.910;8.352;2023-08-20T14:44:35;13.48;;;6.72;;
21128;SDS011;10722;51.910;8.352;2023-08-20T14:47:20;14.43;;;7.85;;
21128;SDS011;10722;51.910;8.352;2023-08-20T14:50:06;14.70;;;8.45;;
21128;SDS011;10722;51.910;8.352;2023-08-20T14:52:51;20.52;;;14.88;;
21128;SDS011;10722;51.910;8.352;2023-08-20T14:55:36;14.48;;;7.50;;
21128;SDS011;10722;51.910;8.352;2023-08-20T14:58:22;14.23;;;6.72;;
21128;SDS011;10722;51.910;8.352;2023-08-20T15:01:07;15.43;;;7.20;;
21128;SDS011;10722;51.910;8.352;2023-08-20T15:03:51;15.05;;;7.00;;
21128;SDS011;10722;51.910;8.352;2023-08-20T15:06:37;13.48;;;7.00;;
21128;SDS011;10722;51.910;8.352;2023-08-20T15:09:22;13.77;;;7.35;;
21128;SDS011;10722;51.910;8.352;2023-08-20T15:12:07;12.98;;;6.28;;
21128;SDS011;10722;51.910;8.352;2023-08-20T15:14:52;14.80;;;7.45;;
21128;SDS011;10722;51.910;8.352;2023-08-20T15:17:37;13.27;;;6.45;;
21128;SDS011;10722;51.910;8.352;2023-08-20T15:20:23;11.98;;;6.20;;
21128;SDS011;10722;51.910;8.352;2023-08-20T15:23:08;13.80;;;7.10;;
21128;SDS011;10722;51.910;8.352;2023-08-20T15:25:53;13.45;;;7.13;;
21128;SDS011;10722;51.910;8.352;2023-08-20T15:28:40;13.52;;;6.20;;
21128;SDS011;10722;51.910;8.352;2023-08-20T15:31:26;12.93;;;6.60;;
21128;SDS011;10722;51.910;8.352;2023-08-20T15:34:11;13.30;;;6.45;;
21128;SDS011;10722;51.910;8.352;2023-08-20T15:36:55;14.55;;;6.50;;
21128;SDS011;10722;51.910;8.352;2023-08-20T15:39:41;14.18;;;6.55;;
21128;SDS011;10722;51.910;8.352;2023-08-20T15:42:26;15.50;;;6.57;;
21128;SDS011;10722;51.910;8.352;2023-08-20T15:45:11;14.57;;;7.43;;
21128;SDS011;10722;51.910;8.352;2023-08-20T15:47:56;14.18;;;7.28;;
21128;SDS011;10722;51.910;8.352;2023-08-20T15:50:41;14.77;;;7.57;;
21128;SDS011;10722;51.910;8.352;2023-08-20T15:53:26;14.27;;;7.38;;
21128;SDS011;10722;51.910;8.352;2023-08-20T15:56:11;14.82;;;8.30;;
21128;SDS011;10722;51.910;8.352;2023-08-20T15:58:56;13.93;;;7.63;;
21128;SDS011;10722;51.910;8.352;2023-08-20T16:01:42;14.63;;;8.02;;
21128;SDS011;10722;51.910;8.352;2023-08-20T16:04:27;14.55;;;8.07;;
21128;SDS011;10722;51.910;8.352;2023-08-20T16:07:12;16.08;;;8.23;;
21128;SDS011;10722;51.910;8.352;2023-08-20T16:09:57;15.05;;;8.02;;
21128;SDS011;10722;51.910;8.352;2023-08-20T16:12:42;13.80;;;7.40;;
21128;SDS011;10722;51.910;8.352;2023-08-20T16:15:28;15.25;;;7.25;;
21128;SDS011;10722;51.910;8.352;2023-08-20T16:18:15;15.55;;;7.55;;
21128;SDS011;10722;51.910;8.352;2023-08-20T16:21:01;16.38;;;7.28;;
21128;SDS011;10722;51.910;8.352;2023-08-20T16:23:45;13.93;;;7.25;;
21128;SDS011;10722;51.910;8.352;2023-08-20T16:26:30;15.23;;;7.43;;